CYQR

Regina International Airport

Regina, Saskatchewan, Canada
METAR CYQR 260300Z 14008KT 15SM BKN220 M11/M14 A2946 RMK CI6 SLP021
Observed Flight Rules
Feb-26 @ 03:00 UTC (18 minutes ago) Visual Flight Rules
Wind Visibility Clouds
140° at 8 knots 15 miles
  • Broken at 22,000' AGL
Temperatures Readings
Current -11°C / 12°F
Dewpoint -14°C / 7°F
Humidity 79%
Altimeter 29.46" Hg
Pressure 1002.1 hPa
Elevation 577
METAR CYQR 260300Z 14008KT 15SM BKN220 M11/M14 A2946 RMK CI6 SLP021
Observed Flight Rules
Feb-26 @ 03:00 UTC
(18 minutes ago)
VFR
Wind Visibility
140° at 8 knots 15 miles
Clouds
  • Broken at 22,000' AGL
Temperature Dewpoint
-11°C / 12°F -14°C / 7°F
Humidity Altimeter Pressure
79% 29.46" Hg 1002.1 hPa